Grover, Nebraska
Current Conditions -  °F | °C
As of 7:54 PM on Friday 24 Oct 2014 (Local Time) from KLNK Reporting Station
Clear Clear  
Wind Chill: 62°   Ceiling: Unl
Heat Index: 62°   Visibility: 10mi
Dew Point: 53°   Wind: 0mph
Humidity: 72%   Direction: NA
Pressure: 29.97"   Gusts: NA
Location:  40.7413°N, 97.0887°W
Report Text: KLNK 250054Z 00000KT 10SM CLR 17/12 A2997 RMK AO2 SLP144 T01670117
Loading
Personal Weather Stations






























Interactive Weather Map
Tropical Storm Tracking
New forecast layout! Learn more

10-Day Weather Forecast

Advertisements
Track Severe Weather on mobile